createdAt,value
2017-10-20T00:02:16.550Z,13.20
2017-10-20T00:04:44.861Z,13.20
2017-10-20T00:07:13.223Z,13.10
2017-10-20T00:09:41.579Z,13.10
2017-10-20T00:12:09.923Z,13.10
2017-10-20T00:14:38.232Z,13.00
2017-10-20T00:17:07.338Z,13.00
2017-10-20T00:19:35.664Z,13.00
2017-10-20T00:22:03.993Z,13.00
2017-10-20T00:24:32.531Z,13.00
2017-10-20T00:27:01.607Z,12.90
2017-10-20T00:29:29.923Z,12.90
2017-10-20T00:31:58.231Z,12.90
2017-10-20T00:34:26.572Z,12.90
2017-10-20T00:36:54.878Z,12.90
2017-10-20T00:39:23.213Z,12.90
2017-10-20T00:41:52.287Z,12.90
2017-10-20T00:44:20.614Z,12.80
2017-10-20T00:46:48.913Z,12.90
2017-10-20T00:49:17.291Z,12.80
2017-10-20T00:51:45.586Z,12.80
2017-10-20T00:54:13.898Z,12.80
2017-10-20T00:56:42.244Z,12.80
2017-10-20T00:59:11.339Z,12.80
2017-10-20T01:01:39.658Z,12.70
2017-10-20T01:04:07.977Z,12.70
2017-10-20T01:06:36.315Z,12.70
2017-10-20T01:09:04.628Z,12.70
2017-10-20T01:11:33.743Z,12.60
2017-10-20T01:14:02.067Z,12.60
2017-10-20T01:16:30.373Z,12.70
2017-10-20T01:18:58.700Z,12.60
2017-10-20T01:21:27.783Z,12.60
2017-10-20T01:23:56.168Z,12.60
2017-10-20T01:26:25.234Z,12.60
2017-10-20T01:28:54.462Z,12.50
2017-10-20T01:31:22.752Z,12.50
2017-10-20T01:33:51.120Z,12.60
2017-10-20T01:36:20.184Z,12.50
2017-10-20T01:38:48.522Z,12.50
2017-10-20T01:41:16.860Z,12.50
2017-10-20T01:43:45.934Z,12.50
2017-10-20T01:46:14.263Z,12.40
2017-10-20T01:48:42.571Z,12.50
2017-10-20T01:51:10.898Z,12.50
2017-10-20T01:53:39.212Z,12.50
2017-10-20T01:56:07.547Z,12.40
2017-10-20T01:58:36.134Z,12.40
2017-10-20T02:01:04.490Z,12.40
2017-10-20T02:03:33.561Z,12.40
2017-10-20T02:06:01.868Z,12.40
2017-10-20T02:08:30.967Z,12.40
2017-10-20T02:11:00.028Z,12.40
2017-10-20T02:13:28.363Z,12.40
2017-10-20T02:15:56.672Z,12.40
2017-10-20T02:18:25.007Z,12.40
2017-10-20T02:20:53.321Z,12.50
2017-10-20T02:23:21.643Z,12.50
2017-10-20T02:25:50.719Z,12.60
2017-10-20T02:28:19.840Z,12.70
2017-10-20T02:30:48.896Z,12.70
2017-10-20T02:33:17.308Z,12.70
2017-10-20T02:35:45.597Z,12.80
2017-10-20T02:38:13.950Z,12.90
2017-10-20T02:40:42.243Z,12.90
2017-10-20T02:43:11.299Z,13.10
2017-10-20T02:45:39.636Z,13.00
2017-10-20T02:48:07.934Z,13.10
2017-10-20T02:50:36.255Z,13.10
2017-10-20T02:53:04.683Z,13.10
2017-10-20T02:55:33.014Z,13.10
2017-10-20T02:58:01.332Z,13.20
2017-10-20T03:00:29.672Z,13.10
2017-10-20T03:02:58.738Z,13.20
2017-10-20T03:05:27.081Z,13.10
2017-10-20T03:07:55.405Z,13.20
2017-10-20T03:10:23.717Z,13.20
2017-10-20T03:12:52.037Z,13.30
2017-10-20T03:15:20.339Z,13.30
2017-10-20T03:17:49.443Z,13.30
2017-10-20T03:20:17.823Z,13.30
2017-10-20T03:22:46.914Z,13.30
2017-10-20T03:25:15.980Z,13.30
2017-10-20T03:27:44.389Z,13.30
2017-10-20T03:30:13.451Z,13.30
2017-10-20T03:32:41.787Z,13.30
2017-10-20T03:35:10.117Z,13.40
2017-10-20T03:37:39.252Z,13.50
2017-10-20T03:40:07.574Z,13.40
2017-10-20T03:42:35.879Z,13.60
2017-10-20T03:45:04.219Z,13.60
2017-10-20T03:47:32.546Z,13.60
2017-10-20T03:50:00.897Z,13.60
2017-10-20T03:52:29.223Z,13.60
2017-10-20T03:54:57.552Z,13.60
2017-10-20T03:57:26.627Z,13.50
2017-10-20T03:59:55.743Z,13.50
2017-10-20T04:02:24.819Z,13.40
2017-10-20T04:04:53.151Z,13.30
2017-10-20T04:07:21.464Z,13.40
2017-10-20T04:09:49.801Z,13.40
2017-10-20T04:12:18.128Z,13.40
2017-10-20T04:14:46.427Z,13.40
2017-10-20T04:17:15.518Z,13.50
2017-10-20T04:19:44.592Z,13.50
2017-10-20T04:22:12.921Z,13.50
2017-10-20T04:24:41.236Z,13.50
2017-10-20T04:27:09.570Z,13.50
2017-10-20T04:29:38.631Z,13.60
2017-10-20T04:32:07.755Z,13.60
2017-10-20T04:34:36.058Z,13.50
2017-10-20T04:37:04.362Z,13.60
2017-10-20T04:39:33.486Z,13.70
2017-10-20T04:42:02.560Z,13.70
2017-10-20T04:44:30.891Z,13.70
2017-10-20T04:46:59.196Z,13.80
2017-10-20T04:49:27.544Z,13.80
2017-10-20T04:51:55.844Z,13.80
2017-10-20T04:54:24.167Z,13.80
2017-10-20T04:56:53.231Z,13.90
2017-10-20T04:59:21.564Z,13.80
2017-10-20T05:01:49.877Z,13.90
2017-10-20T05:04:18.399Z,13.90
2017-10-20T05:06:47.479Z,13.90
2017-10-20T05:09:16.559Z,13.90
2017-10-20T05:11:44.875Z,13.90
2017-10-20T05:14:13.175Z,14.00
2017-10-20T05:16:41.522Z,13.90
2017-10-20T05:19:10.590Z,13.90
2017-10-20T05:21:39.808Z,14.00
2017-10-20T05:24:08.139Z,13.90
2017-10-20T05:26:36.491Z,14.00
2017-10-20T05:29:04.831Z,14.00
2017-10-20T05:31:33.931Z,14.20
2017-10-20T05:34:02.275Z,14.10
2017-10-20T05:36:31.403Z,14.30
2017-10-20T05:39:00.491Z,14.30
2017-10-20T05:41:31.347Z,14.20
2017-10-20T05:43:59.692Z,14.40
2017-10-20T05:46:28.119Z,14.40
2017-10-20T05:48:56.447Z,14.50
2017-10-20T05:51:24.785Z,14.50
2017-10-20T05:53:53.106Z,14.60
2017-10-20T05:56:21.422Z,14.60
2017-10-20T05:58:50.500Z,14.60
2017-10-20T06:01:19.594Z,14.70
2017-10-20T06:03:48.695Z,14.70
2017-10-20T06:06:17.007Z,14.70
2017-10-20T06:08:45.359Z,14.80
2017-10-20T06:11:13.660Z,14.80
2017-10-20T06:13:41.963Z,14.80
2017-10-20T06:16:10.271Z,14.80
2017-10-20T06:18:39.342Z,14.90
2017-10-20T06:21:08.018Z,14.90
2017-10-20T06:23:36.443Z,14.90
2017-10-20T06:26:04.789Z,14.90
2017-10-20T06:28:33.102Z,15.00
2017-10-20T06:31:01.478Z,15.00
2017-10-20T06:33:29.783Z,15.00
2017-10-20T06:35:58.133Z,15.10
2017-10-20T06:38:26.449Z,15.10
2017-10-20T06:40:54.771Z,15.10
2017-10-20T06:43:23.083Z,15.20
2017-10-20T06:45:51.517Z,15.20
2017-10-20T06:48:20.616Z,15.30
2017-10-20T06:50:49.678Z,15.30
2017-10-20T06:53:18.852Z,15.40
2017-10-20T06:55:47.188Z,15.30
2017-10-20T06:58:15.518Z,15.40
2017-10-20T07:00:43.851Z,15.40
2017-10-20T07:03:12.239Z,15.50
2017-10-20T07:05:40.550Z,15.50
2017-10-20T07:08:08.899Z,15.60
2017-10-20T07:10:37.190Z,15.70
2017-10-20T07:13:05.495Z,15.80
2017-10-20T07:15:33.831Z,15.90
2017-10-20T07:18:03.576Z,16.00
2017-10-20T07:20:32.695Z,16.30
2017-10-20T07:23:00.987Z,16.20
2017-10-20T07:25:29.315Z,16.40
2017-10-20T07:27:57.637Z,16.40
2017-10-20T07:30:26.739Z,16.60
2017-10-20T07:32:55.058Z,16.50
2017-10-20T07:35:23.383Z,16.60
2017-10-20T07:37:52.451Z,16.70
2017-10-20T07:40:21.398Z,16.60
2017-10-20T07:42:49.756Z,16.70
2017-10-20T07:45:18.082Z,16.70
2017-10-20T07:47:46.420Z,16.70
2017-10-20T07:50:14.732Z,16.70
2017-10-20T07:52:43.887Z,16.60
2017-10-20T07:55:12.183Z,16.60
2017-10-20T07:57:40.504Z,16.60
2017-10-20T08:00:08.834Z,16.60
2017-10-20T08:02:37.143Z,16.60
2017-10-20T08:05:05.478Z,16.50
2017-10-20T08:07:33.800Z,16.50
2017-10-20T08:10:02.136Z,16.40
2017-10-20T08:12:30.447Z,16.40
2017-10-20T08:14:58.756Z,16.40
2017-10-20T08:17:27.846Z,16.40
2017-10-20T08:19:56.160Z,16.30
2017-10-20T08:22:24.530Z,16.40
2017-10-20T08:24:52.847Z,16.30
2017-10-20T08:27:21.178Z,16.30
2017-10-20T08:29:50.234Z,16.30
2017-10-20T08:32:18.599Z,16.30
2017-10-20T08:34:46.892Z,16.30
2017-10-20T08:37:15.209Z,16.30
2017-10-20T08:39:43.530Z,16.30
2017-10-20T08:42:11.829Z,16.30
2017-10-20T08:44:40.181Z,16.30
2017-10-20T08:47:08.507Z,16.10
2017-10-20T08:49:36.866Z,16.20
2017-10-20T08:52:05.952Z,16.30
2017-10-20T08:54:35.024Z,16.30
2017-10-20T08:57:03.362Z,16.20
2017-10-20T08:59:31.664Z,16.30
2017-10-20T09:01:59.984Z,16.30
2017-10-20T09:04:29.053Z,16.30
2017-10-20T09:06:57.388Z,16.20
2017-10-20T09:09:25.685Z,16.30
2017-10-20T09:11:54.780Z,16.40
2017-10-20T09:14:23.092Z,16.40
2017-10-20T09:16:51.439Z,16.40
2017-10-20T09:19:19.764Z,16.50
2017-10-20T09:21:48.872Z,16.50
2017-10-20T09:24:17.955Z,16.60
2017-10-20T09:26:46.267Z,16.50
2017-10-20T09:29:14.611Z,16.60
2017-10-20T09:31:43.667Z,16.80
2017-10-20T09:34:12.103Z,16.70
2017-10-20T09:36:40.394Z,16.90
2017-10-20T09:39:08.731Z,16.90
2017-10-20T09:41:37.799Z,17.00
2017-10-20T09:44:06.152Z,16.90
2017-10-20T09:46:34.467Z,17.00
2017-10-20T09:49:03.567Z,16.90
2017-10-20T09:51:31.903Z,16.90
2017-10-20T09:54:00.236Z,16.90
2017-10-20T09:56:29.363Z,16.90
2017-10-20T09:58:57.668Z,16.90
2017-10-20T10:01:25.970Z,16.90
2017-10-20T10:03:54.301Z,17.00
2017-10-20T10:06:22.601Z,17.00
2017-10-20T10:08:50.928Z,17.10
2017-10-20T10:11:19.234Z,17.10
2017-10-20T10:13:47.881Z,17.10
2017-10-20T10:16:16.200Z,17.10
2017-10-20T10:18:44.516Z,17.10
2017-10-20T10:21:12.854Z,17.10
2017-10-20T10:23:41.962Z,17.20
2017-10-20T10:26:10.275Z,17.10
2017-10-20T10:28:39.348Z,17.30
2017-10-20T10:31:07.666Z,17.20
2017-10-20T10:33:35.967Z,17.30
2017-10-20T10:36:04.292Z,17.30
2017-10-20T10:38:33.364Z,17.20
2017-10-20T10:41:01.685Z,17.10
2017-10-20T10:43:30.732Z,17.10
2017-10-20T10:45:59.843Z,17.10
2017-10-20T10:48:28.940Z,17.10
2017-10-20T10:50:58.200Z,17.10
2017-10-20T10:53:26.515Z,17.10
2017-10-20T10:55:54.821Z,17.10
2017-10-20T10:58:23.147Z,17.10
2017-10-20T11:00:51.471Z,17.10
2017-10-20T11:03:20.261Z,17.10
2017-10-20T11:06:00.598Z,17.10
2017-10-20T11:08:41.571Z,17.10
2017-10-20T11:11:22.560Z,17.00
2017-10-20T11:13:51.735Z,17.00
2017-10-20T11:16:20.849Z,17.00
2017-10-20T11:18:49.215Z,17.00
2017-10-20T11:21:17.567Z,17.10
2017-10-20T11:23:45.903Z,17.10
2017-10-20T11:26:14.208Z,17.00
2017-10-20T11:28:42.576Z,17.10
2017-10-20T11:31:10.876Z,17.00
2017-10-20T11:33:39.987Z,17.10
2017-10-20T11:36:08.364Z,17.00
2017-10-20T11:38:36.701Z,17.00
2017-10-20T11:41:05.033Z,17.10
2017-10-20T11:43:34.132Z,17.20
2017-10-20T11:46:02.449Z,17.10
2017-10-20T11:48:30.748Z,17.10
2017-10-20T11:50:59.076Z,17.10
2017-10-20T11:53:27.424Z,17.10
2017-10-20T11:55:56.535Z,17.10
2017-10-20T11:58:24.843Z,17.10
2017-10-20T12:00:53.175Z,17.10
2017-10-20T12:03:21.467Z,17.10
2017-10-20T12:05:50.543Z,17.20
2017-10-20T12:08:19.607Z,17.20
2017-10-20T12:10:47.943Z,17.20
2017-10-20T12:13:16.231Z,17.20
2017-10-20T12:15:44.599Z,17.30
2017-10-20T12:18:12.900Z,17.30
2017-10-20T12:20:41.208Z,17.40
2017-10-20T12:23:09.531Z,17.50
2017-10-20T12:25:37.862Z,17.60
2017-10-20T12:28:06.185Z,17.70
2017-10-20T12:30:34.541Z,17.80
2017-10-20T12:33:02.830Z,18.10
2017-10-20T12:35:31.143Z,18.40
2017-10-20T12:37:59.576Z,18.70
2017-10-20T12:40:28.633Z,19.10
2017-10-20T12:42:56.994Z,19.00
2017-10-20T12:45:25.352Z,19.30
2017-10-20T12:47:53.634Z,19.50
2017-10-20T12:50:21.985Z,19.60
2017-10-20T12:52:50.301Z,19.70
2017-10-20T12:55:18.625Z,19.70
2017-10-20T12:57:47.698Z,19.90
2017-10-20T13:00:16.028Z,19.90
2017-10-20T13:02:44.339Z,19.90
2017-10-20T13:05:12.680Z,19.90
2017-10-20T13:07:40.971Z,19.90
2017-10-20T13:10:09.314Z,19.80
2017-10-20T13:12:37.633Z,19.70
2017-10-20T13:15:05.947Z,19.60
2017-10-20T13:17:35.034Z,19.30
2017-10-20T13:20:03.336Z,19.20
2017-10-20T13:22:31.669Z,19.10
2017-10-20T13:24:59.981Z,19.00
2017-10-20T13:27:28.323Z,19.00
2017-10-20T13:29:56.610Z,19.00
2017-10-20T13:32:24.937Z,19.00
2017-10-20T13:34:53.242Z,19.00
2017-10-20T13:37:22.391Z,18.90
2017-10-20T13:39:50.706Z,18.80
2017-10-20T13:42:19.011Z,18.80
2017-10-20T13:44:47.344Z,18.80
2017-10-20T13:47:15.655Z,18.60
2017-10-20T13:49:45.504Z,18.50
2017-10-20T13:52:13.827Z,18.50
2017-10-20T13:54:42.166Z,18.50
2017-10-20T13:57:10.471Z,18.40
2017-10-20T13:59:38.788Z,18.40
2017-10-20T14:02:07.098Z,18.40
2017-10-20T14:04:35.429Z,18.40
2017-10-20T14:07:03.739Z,18.40
2017-10-20T14:09:33.076Z,18.40
2017-10-20T14:12:01.384Z,18.40
2017-10-20T14:14:29.723Z,18.40
2017-10-20T14:16:59.303Z,18.30
2017-10-20T14:19:27.684Z,18.40
2017-10-20T14:21:56.073Z,18.40
2017-10-20T14:24:26.198Z,18.50
2017-10-20T14:26:54.527Z,18.60
2017-10-20T14:29:22.820Z,18.70
2017-10-20T14:31:51.923Z,19.10
2017-10-20T14:34:21.010Z,19.30
2017-10-20T14:36:50.099Z,19.40
2017-10-20T14:39:18.475Z,19.30
2017-10-20T14:41:46.828Z,19.50
2017-10-20T14:44:15.140Z,19.60
2017-10-20T14:46:44.263Z,19.60
2017-10-20T14:49:12.566Z,19.50
2017-10-20T14:51:40.908Z,19.50
2017-10-20T14:54:09.254Z,19.50
2017-10-20T14:56:37.585Z,19.40
2017-10-20T14:59:05.935Z,19.20
2017-10-20T15:01:34.264Z,19.10
2017-10-20T15:04:02.598Z,19.00
2017-10-20T15:06:30.903Z,18.90
2017-10-20T15:08:59.252Z,18.80
2017-10-20T15:11:27.538Z,18.70
2017-10-20T15:13:55.883Z,18.60
2017-10-20T15:16:24.942Z,18.30
2017-10-20T15:18:53.234Z,18.30
2017-10-20T15:21:21.551Z,18.00
2017-10-20T15:23:49.826Z,17.60
2017-10-20T15:26:18.136Z,17.20
2017-10-20T15:28:46.446Z,16.90
2017-10-20T15:31:15.890Z,16.60
2017-10-20T15:33:44.195Z,16.60
2017-10-20T15:36:12.505Z,16.50
2017-10-20T15:38:41.932Z,16.20
2017-10-20T15:41:10.274Z,16.20
2017-10-20T15:43:38.587Z,16.10
2017-10-20T15:46:06.883Z,16.00
2017-10-20T15:48:35.223Z,16.00
2017-10-20T15:51:04.539Z,16.00
2017-10-20T15:53:32.855Z,16.00
2017-10-20T15:56:01.138Z,16.00
2017-10-20T15:58:29.475Z,16.00
2017-10-20T16:00:57.757Z,16.00
2017-10-20T16:03:26.075Z,16.00
2017-10-20T16:05:55.195Z,15.80
2017-10-20T16:08:23.523Z,15.70
2017-10-20T16:10:51.859Z,15.80
2017-10-20T16:13:20.179Z,15.80
2017-10-20T16:15:48.498Z,15.80
2017-10-20T16:18:16.823Z,15.80
2017-10-20T16:20:45.142Z,15.80
2017-10-20T16:23:13.444Z,15.80
2017-10-20T16:25:41.782Z,15.80
2017-10-20T16:28:10.092Z,15.70
2017-10-20T16:30:39.187Z,15.50
2017-10-20T16:33:07.511Z,15.50
2017-10-20T16:35:35.855Z,15.40
2017-10-20T16:38:04.175Z,15.30
2017-10-20T16:40:32.496Z,15.20
2017-10-20T16:43:02.835Z,15.00
2017-10-20T16:45:31.194Z,15.00
2017-10-20T16:48:00.266Z,14.80
2017-10-20T16:50:28.563Z,14.80
2017-10-20T16:52:57.765Z,14.60
2017-10-20T16:55:26.145Z,14.60
2017-10-20T16:57:55.231Z,14.40
2017-10-20T17:00:24.384Z,14.30
2017-10-20T17:02:52.712Z,14.30
2017-10-20T17:05:21.771Z,14.20
2017-10-20T17:07:50.075Z,14.20
2017-10-20T17:10:19.708Z,14.20
2017-10-20T17:12:47.999Z,14.10
2017-10-20T17:15:16.323Z,14.00
2017-10-20T17:17:45.390Z,13.90
2017-10-20T17:20:13.708Z,13.90
2017-10-20T17:22:42.813Z,13.80
2017-10-20T17:25:12.091Z,13.80
2017-10-20T17:27:41.160Z,13.90
2017-10-20T17:30:11.224Z,14.00
2017-10-20T17:32:39.579Z,13.90
2017-10-20T17:35:07.891Z,14.10
2017-10-20T17:37:36.200Z,14.10
2017-10-20T17:40:05.270Z,14.20
2017-10-20T17:42:33.595Z,14.20
2017-10-20T17:45:01.983Z,14.30
2017-10-20T17:47:31.091Z,14.40
2017-10-20T17:50:00.146Z,14.50
2017-10-20T17:52:28.468Z,14.40
2017-10-20T17:54:56.795Z,14.60
2017-10-20T17:57:25.097Z,14.60
2017-10-20T17:59:54.212Z,14.60
2017-10-20T18:02:22.492Z,14.60
2017-10-20T18:04:50.849Z,14.60
2017-10-20T18:07:19.139Z,14.70
2017-10-20T18:09:47.478Z,14.80
2017-10-20T18:12:15.824Z,14.80
2017-10-20T18:14:44.139Z,14.90
2017-10-20T18:17:12.487Z,14.90
2017-10-20T18:19:40.806Z,14.90
2017-10-20T18:22:09.125Z,14.90
2017-10-20T18:24:37.428Z,15.00
2017-10-20T18:27:05.779Z,14.90
2017-10-20T18:29:34.094Z,14.90
2017-10-20T18:32:02.412Z,14.90
2017-10-20T18:34:30.755Z,14.90
2017-10-20T18:36:59.074Z,15.00
2017-10-20T18:39:27.389Z,15.00
2017-10-20T18:41:55.728Z,15.00
2017-10-20T18:44:24.788Z,15.00
2017-10-20T18:46:53.089Z,14.90
2017-10-20T18:49:22.189Z,15.00
2017-10-20T18:51:51.275Z,15.00
2017-10-20T18:54:20.359Z,15.10
2017-10-20T18:56:48.689Z,15.00
2017-10-20T18:59:17.177Z,15.10
2017-10-20T19:01:45.472Z,15.10
2017-10-20T19:04:13.786Z,15.10
2017-10-20T19:06:42.091Z,15.10
2017-10-20T19:09:10.436Z,15.10
2017-10-20T19:11:38.732Z,15.20
2017-10-20T19:14:07.039Z,15.20
2017-10-20T19:16:35.381Z,15.20
2017-10-20T19:19:03.680Z,15.20
2017-10-20T19:21:31.997Z,15.20
2017-10-20T19:24:00.364Z,15.20
2017-10-20T19:26:28.666Z,15.20
2017-10-20T19:28:56.992Z,15.20
2017-10-20T19:31:25.341Z,15.10
2017-10-20T19:33:53.644Z,15.10
2017-10-20T19:36:22.019Z,15.10
2017-10-20T19:38:50.425Z,15.10
2017-10-20T19:41:18.808Z,15.10
2017-10-20T19:43:47.136Z,15.00
2017-10-20T19:46:16.211Z,15.10
2017-10-20T19:48:44.600Z,15.00
2017-10-20T19:51:12.905Z,15.10
2017-10-20T19:53:41.266Z,15.10
2017-10-20T19:56:09.600Z,15.10
2017-10-20T19:58:37.944Z,15.20
2017-10-20T20:01:06.312Z,15.20
2017-10-20T20:03:34.647Z,15.20
2017-10-20T20:06:02.986Z,15.20
2017-10-20T20:08:31.310Z,15.20
2017-10-20T20:11:00.424Z,15.20
2017-10-20T20:13:28.759Z,15.20
2017-10-20T20:15:57.095Z,15.30
2017-10-20T20:18:25.422Z,15.30
2017-10-20T20:20:53.801Z,15.30
2017-10-20T20:23:22.223Z,15.30
2017-10-20T20:25:50.524Z,15.30
2017-10-20T20:28:19.618Z,15.30
2017-10-20T20:30:47.976Z,15.30
2017-10-20T20:33:19.572Z,15.30
2017-10-20T20:35:48.003Z,15.30
2017-10-20T20:38:16.357Z,15.30
2017-10-20T20:40:44.724Z,15.20
2017-10-20T20:43:13.814Z,15.20
2017-10-20T20:45:42.885Z,15.20
2017-10-20T20:48:11.958Z,15.20
2017-10-20T20:50:40.251Z,15.10
2017-10-20T20:53:08.575Z,15.20
2017-10-20T20:55:36.889Z,15.10
2017-10-20T20:58:05.234Z,15.10
2017-10-20T21:00:34.300Z,15.10
2017-10-20T21:03:02.603Z,15.10
2017-10-20T21:05:30.911Z,15.10
2017-10-20T21:07:59.236Z,15.20
2017-10-20T21:10:27.542Z,15.20
2017-10-20T21:12:55.880Z,15.20
2017-10-20T21:15:24.953Z,15.20
2017-10-20T21:17:54.074Z,15.20
2017-10-20T21:20:23.122Z,15.20
2017-10-20T21:22:51.772Z,15.20
2017-10-20T21:25:20.831Z,15.20
2017-10-20T21:27:49.905Z,15.20
2017-10-20T21:30:18.216Z,15.20
2017-10-20T21:32:47.617Z,15.20
2017-10-20T21:35:16.030Z,15.10
2017-10-20T21:37:44.340Z,15.00
2017-10-20T21:40:12.647Z,15.10
2017-10-20T21:42:41.711Z,15.00
2017-10-20T21:45:10.041Z,15.00
2017-10-20T21:47:38.337Z,15.00
2017-10-20T21:50:06.627Z,15.00
2017-10-20T21:52:34.958Z,15.00
2017-10-20T21:55:04.047Z,15.00
2017-10-20T21:57:33.136Z,14.90
2017-10-20T22:00:02.206Z,14.90
2017-10-20T22:02:31.330Z,14.90
2017-10-20T22:04:59.648Z,14.90
2017-10-20T22:07:27.979Z,14.90
2017-10-20T22:09:57.049Z,14.90
2017-10-20T22:12:25.396Z,14.80
2017-10-20T22:14:53.695Z,14.90
2017-10-20T22:17:22.015Z,14.90
2017-10-20T22:19:50.347Z,14.90
2017-10-20T22:22:18.634Z,15.00
2017-10-20T22:24:46.946Z,14.90
2017-10-20T22:27:15.999Z,14.90
2017-10-20T22:29:44.316Z,14.90
2017-10-20T22:32:12.606Z,14.90
2017-10-20T22:34:40.936Z,14.80
2017-10-20T22:37:09.250Z,14.90
2017-10-20T22:39:38.327Z,14.90
2017-10-20T22:42:07.399Z,14.90
2017-10-20T22:44:35.726Z,14.90
2017-10-20T22:47:04.007Z,14.90
2017-10-20T22:49:32.313Z,14.90
2017-10-20T22:52:00.627Z,15.00
2017-10-20T22:54:29.696Z,15.00
2017-10-20T22:56:58.020Z,14.90
2017-10-20T22:59:26.315Z,15.00
2017-10-20T23:01:54.635Z,15.00
2017-10-20T23:04:23.721Z,15.00
2017-10-20T23:06:52.046Z,15.00
2017-10-20T23:09:20.346Z,15.00
2017-10-20T23:11:48.663Z,15.00
2017-10-20T23:14:16.963Z,15.10
2017-10-20T23:16:46.055Z,15.00
2017-10-20T23:19:15.140Z,14.90
2017-10-20T23:21:44.212Z,14.90
2017-10-20T23:24:13.327Z,14.90
2017-10-20T23:26:42.385Z,14.90
2017-10-20T23:29:10.719Z,14.80
2017-10-20T23:31:39.019Z,14.80
2017-10-20T23:34:07.338Z,14.80
2017-10-20T23:36:35.639Z,14.80
2017-10-20T23:39:04.719Z,14.80
2017-10-20T23:41:33.784Z,14.80
2017-10-20T23:44:02.103Z,14.80
2017-10-20T23:46:31.174Z,14.80
2017-10-20T23:49:00.395Z,14.80
2017-10-20T23:51:29.447Z,14.80
2017-10-20T23:53:57.742Z,14.70
2017-10-20T23:56:26.055Z,14.70
2017-10-20T23:58:54.358Z,14.70
